Time;durP1;ratioP1;P1;durP2;ratioP2;P2;SDS_P1;SDS_P2;PMS_P1;PMS_P2;Temp;Humidity;BMP_temperature;BMP_pressure;BME280_temperature;BME280_humidity;BME280_pressure;Samples;Min_cycle;Max_cycle;Signal;HPM_P1;HPM_P2
2022/09/19 00:01:32;;;;;;;0.50;0.50;;;9.60;99.90;;;;;;5071332;28;20209;-77
2022/09/19 00:04:01;;;;;;;0.60;0.60;;;9.70;99.90;;;;;;5070487;28;20197;-77
2022/09/19 00:06:31;;;;;;;0.60;0.40;;;9.70;99.90;;;;;;5070375;28;20181;-77
2022/09/19 00:09:00;;;;;;;0.50;0.40;;;9.70;99.90;;;;;;5071031;28;20296;-77
2022/09/19 00:11:27;;;;;;;0.70;0.70;;;9.70;99.90;;;;;;5071275;28;20209;-76
2022/09/19 00:13:56;;;;;;;1.60;1.05;;;9.70;99.90;;;;;;5070809;28;20583;-76
2022/09/19 00:16:26;;;;;;;0.50;0.40;;;9.80;99.90;;;;;;5071163;28;20248;-77
2022/09/19 00:18:55;;;;;;;0.50;0.40;;;9.80;99.90;;;;;;5071116;28;20250;-77
2022/09/19 00:21:23;;;;;;;0.50;0.40;;;9.80;99.90;;;;;;5071393;28;20666;-77
2022/09/19 00:26:36;;;;;;;0.70;0.70;;;9.80;99.90;;;;;;5071234;28;20191;-77
2022/09/19 00:29:03;;;;;;;0.88;0.88;;;9.80;99.90;;;;;;5071279;28;20262;-77
2022/09/19 00:31:30;;;;;;;0.50;0.40;;;9.80;99.90;;;;;;5071130;28;20195;-77
2022/09/19 00:33:57;;;;;;;0.50;0.40;;;9.80;99.90;;;;;;5070516;28;20216;-77
2022/09/19 00:36:25;;;;;;;8.07;1.42;;;9.80;99.90;;;;;;5071106;28;20221;-77
2022/09/19 00:38:51;;;;;;;0.50;0.40;;;9.70;99.90;;;;;;5070760;28;20626;-77
2022/09/19 00:41:25;;;;;;;0.50;0.40;;;9.80;99.90;;;;;;5071263;28;20207;-77
2022/09/19 00:43:56;;;;;;;0.50;0.40;;;9.80;99.90;;;;;;5070708;28;20194;-75
2022/09/19 00:46:24;;;;;;;8.77;3.53;;;9.80;99.90;;;;;;5070969;28;20259;-77
2022/09/19 00:48:55;;;;;;;0.50;0.40;;;9.80;99.90;;;;;;5070977;28;20203;-77
2022/09/19 00:51:31;;;;;;;0.50;0.50;;;9.80;99.90;;;;;;5070939;28;20197;-77
2022/09/19 00:54:00;;;;;;;1.52;1.45;;;9.80;99.90;;;;;;5070070;28;20233;-77
2022/09/19 00:56:28;;;;;;;0.50;0.47;;;9.90;99.90;;;;;;5069979;28;20192;-77
2022/09/19 00:58:57;;;;;;;0.50;0.40;;;9.90;99.90;;;;;;5069777;28;20201;-77
2022/09/19 01:01:25;;;;;;;0.70;0.70;;;9.90;99.90;;;;;;5069605;28;20291;-77
2022/09/19 01:03:53;;;;;;;0.50;0.40;;;9.90;99.90;;;;;;5069678;28;20205;-76
2022/09/19 01:06:40;;;;;;;3.80;0.75;;;9.90;99.90;;;;;;5069067;28;20278;-77
2022/09/19 01:09:28;;;;;;;0.60;0.60;;;10.00;99.90;;;;;;5069759;28;20252;-78
2022/09/19 01:12:15;;;;;;;0.50;0.40;;;9.90;99.90;;;;;;5069976;28;20628;-77
2022/09/19 01:15:09;;;;;;;0.50;0.40;;;9.80;99.90;;;;;;5070077;28;20224;-78
2022/09/19 01:17:42;;;;;;;0.50;0.40;;;9.80;99.90;;;;;;5073257;28;20200;-78
2022/09/19 01:20:32;;;;;;;0.50;0.40;;;9.70;99.90;;;;;;5073015;28;20227;-77
2022/09/19 01:23:15;;;;;;;0.50;0.40;;;9.80;99.90;;;;;;5073150;28;20201;-78
2022/09/19 01:25:49;;;;;;;0.50;0.45;;;9.80;99.90;;;;;;5072585;28;20235;-76
2022/09/19 01:28:21;;;;;;;0.50;0.40;;;9.80;99.90;;;;;;5072724;28;20206;-77
2022/09/19 01:31:16;;;;;;;0.50;0.40;;;9.80;99.90;;;;;;5073287;28;20181;-77
2022/09/19 01:33:47;;;;;;;0.50;0.40;;;9.80;99.90;;;;;;5072388;28;20298;-77
2022/09/19 01:36:15;;;;;;;0.60;0.60;;;9.90;99.90;;;;;;5072534;28;20224;-77
2022/09/19 01:38:45;;;;;;;0.50;0.40;;;9.90;99.90;;;;;;5072430;28;20288;-77
2022/09/19 01:41:12;;;;;;;0.50;0.40;;;9.80;99.90;;;;;;5073054;28;20201;-77
2022/09/19 01:43:40;;;;;;;0.50;0.40;;;9.80;99.90;;;;;;5072841;28;20197;-77
2022/09/19 01:46:13;;;;;;;0.50;0.40;;;9.80;99.90;;;;;;5072292;28;20312;-77
2022/09/19 01:48:49;;;;;;;0.50;0.40;;;9.70;99.90;;;;;;5072384;28;20627;-77
2022/09/19 01:51:28;;;;;;;10.43;3.05;;;9.80;99.90;;;;;;5072588;28;20599;-77
2022/09/19 01:54:15;;;;;;;0.50;0.40;;;9.80;99.90;;;;;;5033616;28;1092456;-76
2022/09/19 01:56:50;;;;;;;0.50;0.40;;;9.80;99.90;;;;;;5073608;28;20200;-77
2022/09/19 01:59:34;;;;;;;0.50;0.40;;;9.80;99.90;;;;;;5073699;28;20292;-77
2022/09/19 02:02:08;;;;;;;0.50;0.40;;;9.70;99.90;;;;;;5073843;28;20204;-77
2022/09/19 02:04:43;;;;;;;0.50;0.40;;;9.70;99.90;;;;;;5073325;28;20213;-77
2022/09/19 02:07:20;;;;;;;0.50;0.40;;;9.60;99.90;;;;;;5072851;28;20290;-77
2022/09/19 02:09:53;;;;;;;0.50;0.40;;;9.50;99.90;;;;;;5073377;28;20645;-77
2022/09/19 02:12:22;;;;;;;0.50;0.40;;;9.50;99.90;;;;;;5073240;28;20200;-77
2022/09/19 02:14:55;;;;;;;0.50;0.40;;;9.50;99.90;;;;;;5072427;28;20220;-77
2022/09/19 02:17:26;;;;;;;0.50;0.50;;;9.40;99.90;;;;;;5073608;28;20615;-77
2022/09/19 02:19:57;;;;;;;0.50;0.40;;;9.40;99.90;;;;;;5073485;28;20634;-78
2022/09/19 02:22:30;;;;;;;1.20;1.20;;;9.30;99.90;;;;;;5072793;28;20665;-77
2022/09/19 02:25:02;;;;;;;0.50;0.40;;;9.30;99.90;;;;;;5072877;28;20219;-77
2022/09/19 02:27:35;;;;;;;1.00;0.80;;;9.30;99.90;;;;;;5072147;28;20220;-78
2022/09/19 02:30:08;;;;;;;0.50;0.40;;;9.20;99.90;;;;;;5072992;28;20208;-77
2022/09/19 02:32:35;;;;;;;2.35;1.60;;;9.30;99.90;;;;;;5073152;28;20185;-78
2022/09/19 02:35:03;;;;;;;0.50;0.40;;;9.20;99.90;;;;;;5072361;28;20253;-77
2022/09/19 02:37:35;;;;;;;2.90;2.63;;;9.20;99.90;;;;;;5072753;28;20211;-77
2022/09/19 02:40:07;;;;;;;0.50;0.40;;;9.20;99.90;;;;;;5073006;28;20540;-77
2022/09/19 02:42:49;;;;;;;0.50;0.40;;;9.20;99.90;;;;;;5072880;28;20258;-77
2022/09/19 02:45:25;;;;;;;0.50;0.40;;;9.30;99.90;;;;;;5072063;28;20824;-77
2022/09/19 02:48:01;;;;;;;0.50;0.40;;;9.30;99.90;;;;;;5072746;28;20187;-77
2022/09/19 02:50:37;;;;;;;0.82;0.82;;;9.40;99.90;;;;;;5072549;28;20867;-77
2022/09/19 02:53:07;;;;;;;0.50;0.40;;;9.40;99.90;;;;;;5072679;28;20273;-77
2022/09/19 02:55:42;;;;;;;0.50;0.40;;;9.40;99.90;;;;;;5071624;28;20223;-77
2022/09/19 02:58:11;;;;;;;0.50;0.40;;;9.40;99.90;;;;;;5072358;28;20249;-77
2022/09/19 03:00:40;;;;;;;1.38;1.27;;;9.40;99.90;;;;;;5072266;28;20697;-77
2022/09/19 03:05:56;;;;;;;0.75;0.75;;;9.40;99.90;;;;;;5070474;28;20210;-77
2022/09/19 03:08:25;;;;;;;1.40;1.40;;;9.40;99.90;;;;;;5072137;28;20206;-77
2022/09/19 03:10:57;;;;;;;0.50;0.40;;;9.40;99.90;;;;;;5072109;28;20193;-77
2022/09/19 03:13:25;;;;;;;2.58;2.45;;;9.50;99.90;;;;;;5072314;28;20181;-77
2022/09/19 03:15:59;;;;;;;0.50;0.40;;;9.60;99.90;;;;;;5071556;28;20224;-77
2022/09/19 03:18:27;;;;;;;0.50;0.40;;;9.50;99.90;;;;;;5072382;28;20181;-76
2022/09/19 03:20:59;;;;;;;0.50;0.40;;;9.60;99.90;;;;;;5071857;28;20203;-78
2022/09/19 03:23:30;;;;;;;3.22;1.60;;;9.70;99.90;;;;;;5071911;28;20185;-77
2022/09/19 03:25:57;;;;;;;0.50;0.50;;;9.70;99.90;;;;;;5071507;28;20227;-77
2022/09/19 03:28:24;;;;;;;1.52;1.40;;;9.80;99.90;;;;;;5072451;28;20784;-78
2022/09/19 03:30:51;;;;;;;0.50;0.40;;;9.80;99.90;;;;;;5072884;28;20681;-78
2022/09/19 03:33:19;;;;;;;0.50;0.40;;;9.80;99.90;;;;;;5071856;28;20288;-77
2022/09/19 03:35:50;;;;;;;0.50;0.40;;;9.80;99.90;;;;;;5071312;28;20244;-78
2022/09/19 03:38:17;;;;;;;0.50;0.40;;;9.80;99.90;;;;;;5071715;28;20208;-78
2022/09/19 03:40:44;;;;;;;0.98;0.85;;;9.80;99.90;;;;;;5072107;28;20201;-75
2022/09/19 03:43:11;;;;;;;0.50;0.40;;;9.80;99.90;;;;;;5071572;28;20618;-78
2022/09/19 03:45:38;;;;;;;0.50;0.40;;;9.80;99.90;;;;;;5071804;28;20374;-76
2022/09/19 03:48:05;;;;;;;0.50;0.40;;;9.80;99.90;;;;;;5071447;28;20196;-78
2022/09/19 03:50:33;;;;;;;2.25;1.95;;;9.70;99.90;;;;;;5071519;28;20196;-78
2022/09/19 03:53:00;;;;;;;0.50;0.40;;;9.70;99.90;;;;;;5071422;28;20195;-77
2022/09/19 03:55:27;;;;;;;0.50;0.40;;;9.70;99.90;;;;;;5071085;28;20225;-77
2022/09/19 03:57:54;;;;;;;1.13;0.52;;;9.80;99.90;;;;;;5071733;28;20204;-77
2022/09/19 04:00:22;;;;;;;0.50;0.40;;;9.80;99.90;;;;;;5071222;28;20283;-77
2022/09/19 04:02:49;;;;;;;0.50;0.40;;;9.70;99.90;;;;;;5071414;28;20194;-77
2022/09/19 04:05:16;;;;;;;0.50;0.40;;;9.70;99.90;;;;;;5071150;28;20756;-77
2022/09/19 04:07:44;;;;;;;0.50;0.40;;;9.70;99.90;;;;;;5070822;28;20235;-77
2022/09/19 04:10:11;;;;;;;2.67;1.08;;;9.70;99.90;;;;;;5071126;28;20768;-76
2022/09/19 04:12:38;;;;;;;5.28;4.53;;;9.70;99.90;;;;;;5071381;28;20670;-77
2022/09/19 04:15:06;;;;;;;0.50;0.40;;;9.60;99.90;;;;;;5071377;28;20315;-76
2022/09/19 04:17:33;;;;;;;0.50;0.43;;;9.60;99.90;;;;;;5071031;28;20255;-77
2022/09/19 04:20:00;;;;;;;0.50;0.40;;;9.60;99.90;;;;;;5071701;28;20306;-78
2022/09/19 04:22:27;;;;;;;6.18;0.95;;;9.60;99.90;;;;;;5071742;28;20220;-76
2022/09/19 04:24:55;;;;;;;0.77;0.77;;;9.50;99.90;;;;;;5071390;28;20217;-77
2022/09/19 04:27:22;;;;;;;0.50;0.40;;;9.50;99.90;;;;;;5070956;28;20201;-77
2022/09/19 04:29:49;;;;;;;0.50;0.40;;;9.50;99.90;;;;;;5071168;28;20200;-76
2022/09/19 04:32:16;;;;;;;0.50;0.40;;;9.50;99.90;;;;;;5071174;28;20291;-77
2022/09/19 04:34:43;;;;;;;0.60;0.60;;;9.60;99.90;;;;;;5070779;28;20220;-76
2022/09/19 04:37:10;;;;;;;0.70;0.70;;;9.50;99.90;;;;;;5070945;28;20205;-77
2022/09/19 04:39:37;;;;;;;0.50;0.40;;;9.60;99.90;;;;;;5073853;28;20203;-76
2022/09/19 04:42:05;;;;;;;0.50;0.40;;;9.60;99.90;;;;;;5071408;28;20246;-77
2022/09/19 04:44:32;;;;;;;0.50;0.50;;;9.70;99.90;;;;;;5071851;28;20870;-76
2022/09/19 04:46:59;;;;;;;0.88;0.80;;;9.70;99.90;;;;;;5072461;28;20199;-77
2022/09/19 04:49:34;;;;;;;0.50;0.40;;;9.80;99.90;;;;;;5072518;28;20199;-76
2022/09/19 04:52:01;;;;;;;0.50;0.40;;;9.80;99.90;;;;;;5077287;28;20398;-77
2022/09/19 04:54:29;;;;;;;2.35;1.55;;;9.80;99.90;;;;;;5075344;28;20221;-76
2022/09/19 04:56:56;;;;;;;15.00;2.05;;;9.70;99.90;;;;;;5075690;28;20200;-77
2022/09/19 04:59:24;;;;;;;2.05;1.40;;;9.70;99.90;;;;;;5075546;28;20211;-75
2022/09/19 05:01:51;;;;;;;0.50;0.40;;;9.60;99.90;;;;;;5075604;28;20198;-77
2022/09/19 05:04:18;;;;;;;0.60;0.50;;;9.60;99.90;;;;;;5075614;28;20207;-76
2022/09/19 05:06:45;;;;;;;0.50;0.40;;;9.50;99.90;;;;;;5075890;28;20627;-76
2022/09/19 05:09:12;;;;;;;0.50;0.40;;;9.60;99.90;;;;;;5074591;28;20235;-75
2022/09/19 05:11:46;;;;;;;0.50;0.40;;;9.50;99.90;;;;;;5074287;28;20299;-77
2022/09/19 05:14:13;;;;;;;0.50;0.40;;;9.40;99.90;;;;;;5074509;28;20184;-76
2022/09/19 05:16:42;;;;;;;0.50;0.40;;;9.30;99.90;;;;;;5074493;28;20198;-76
2022/09/19 05:19:09;;;;;;;0.75;0.75;;;9.30;99.90;;;;;;5074017;28;20197;-76
2022/09/19 05:21:36;;;;;;;0.50;0.40;;;9.30;99.90;;;;;;5074167;28;20200;-76
2022/09/19 05:24:04;;;;;;;0.50;0.40;;;9.30;99.90;;;;;;5073588;28;20200;-74
2022/09/19 05:26:30;;;;;;;0.50;0.50;;;9.30;99.90;;;;;;5074335;28;20235;-76
2022/09/19 05:28:57;;;;;;;0.50;0.40;;;9.30;99.90;;;;;;5073936;28;20260;-76
2022/09/19 05:31:25;;;;;;;1.30;1.23;;;9.30;99.90;;;;;;5073557;28;20199;-76
2022/09/19 05:33:53;;;;;;;0.50;0.40;;;9.30;99.90;;;;;;5073288;28;20232;-76
2022/09/19 05:36:20;;;;;;;1.13;1.10;;;9.30;99.90;;;;;;5073110;28;20308;-76
2022/09/19 05:38:48;;;;;;;0.50;0.40;;;9.30;99.90;;;;;;5073818;28;20242;-75
2022/09/19 05:41:16;;;;;;;0.50;0.40;;;9.40;99.90;;;;;;5073859;28;20231;-75
2022/09/19 05:43:44;;;;;;;0.50;0.40;;;9.40;99.90;;;;;;5073643;28;20597;-76
2022/09/19 05:46:11;;;;;;;0.50;0.40;;;9.40;99.90;;;;;;5073635;28;20216;-76
2022/09/19 05:48:38;;;;;;;0.50;0.40;;;9.50;99.90;;;;;;5073842;28;20225;-76
2022/09/19 05:51:06;;;;;;;3.33;3.00;;;9.60;99.90;;;;;;5074509;28;20291;-76
2022/09/19 05:56:17;;;;;;;0.50;0.40;;;9.60;99.90;;;;;;5073049;28;20250;-76
2022/09/19 05:58:44;;;;;;;0.60;0.60;;;9.70;99.90;;;;;;5074869;28;20204;-76
2022/09/19 06:01:13;;;;;;;0.63;0.63;;;9.80;99.90;;;;;;5072127;28;20247;-76
2022/09/19 06:03:41;;;;;;;0.50;0.40;;;9.80;99.90;;;;;;5073152;28;20674;-76
2022/09/19 06:06:13;;;;;;;0.50;0.40;;;9.80;99.90;;;;;;5072735;28;20227;-76
2022/09/19 06:08:42;;;;;;;0.50;0.40;;;9.90;99.90;;;;;;5072899;28;20254;-76
2022/09/19 06:11:09;;;;;;;0.50;0.40;;;9.90;99.90;;;;;;5073192;28;20674;-76
2022/09/19 06:16:21;;;;;;;1.50;1.23;;;10.10;99.90;;;;;;5072382;28;20231;-76
2022/09/19 06:18:49;;;;;;;0.50;0.40;;;10.20;99.90;;;;;;5072644;28;20263;-76
2022/09/19 06:21:17;;;;;;;0.50;0.40;;;10.20;99.90;;;;;;5072916;28;20229;-75
2022/09/19 06:23:44;;;;;;;0.93;0.93;;;10.30;99.90;;;;;;5072860;28;20196;-76
2022/09/19 06:26:11;;;;;;;0.60;0.60;;;10.40;99.90;;;;;;5072306;28;20224;-76
2022/09/19 06:28:38;;;;;;;0.75;0.55;;;10.50;99.90;;;;;;5072846;28;20205;-76
2022/09/19 06:31:07;;;;;;;0.50;0.40;;;10.60;99.90;;;;;;5072655;28;20197;-74
2022/09/19 06:33:34;;;;;;;0.50;0.40;;;11.10;99.90;;;;;;5072553;28;20283;-76
2022/09/19 06:36:02;;;;;;;3.35;3.15;;;12.00;99.90;;;;;;5072451;28;20216;-76
2022/09/19 06:38:31;;;;;;;0.60;0.60;;;13.30;99.90;;;;;;5073801;28;20220;-77
2022/09/19 06:40:58;;;;;;;0.50;0.40;;;14.60;99.90;;;;;;5073281;28;20448;-77
2022/09/19 06:43:26;;;;;;;0.50;0.40;;;15.70;99.90;;;;;;5073910;28;20442;-77
2022/09/19 06:45:53;;;;;;;0.50;0.40;;;16.60;99.90;;;;;;5075042;28;20448;-77
2022/09/19 06:48:20;;;;;;;0.50;0.30;;;17.30;99.90;;;;;;5075091;28;20429;-77
2022/09/19 06:50:47;;;;;;;0.60;0.60;;;17.90;99.90;;;;;;5073060;28;20563;-77
2022/09/19 06:53:14;;;;;;;0.50;0.40;;;18.60;99.90;;;;;;5074032;28;20448;-77
2022/09/19 06:55:43;;;;;;;0.50;0.40;;;19.50;99.90;;;;;;5071907;28;20476;-77
2022/09/19 06:58:11;;;;;;;0.80;0.77;;;20.10;99.90;;;;;;5072756;28;20438;-77
2022/09/19 07:00:40;;;;;;;0.50;0.40;;;20.70;99.90;;;;;;5072553;28;20444;-77
2022/09/19 07:03:09;;;;;;;1.70;1.57;;;21.20;99.90;;;;;;5074854;28;20459;-77
2022/09/19 07:05:37;;;;;;;0.50;0.40;;;21.80;99.90;;;;;;5076339;28;20478;-77
2022/09/19 07:08:05;;;;;;;0.50;0.37;;;21.30;99.90;;;;;;5076532;28;20513;-78
2022/09/19 07:10:32;;;;;;;0.50;0.30;;;21.20;99.90;;;;;;5075803;28;20509;-78
2022/09/19 07:13:01;;;;;;;0.50;0.40;;;20.50;99.90;;;;;;5073910;28;20489;-77
2022/09/19 07:15:28;;;;;;;2.00;1.90;;;19.60;99.90;;;;;;5074022;28;20549;-77
2022/09/19 07:17:56;;;;;;;0.50;0.40;;;18.90;99.90;;;;;;5075301;28;20440;-77
2022/09/19 07:20:24;;;;;;;0.50;0.40;;;18.20;99.90;;;;;;5072721;28;20535;-78
2022/09/19 07:22:59;;;;;;;0.50;0.40;;;17.90;99.90;;;;;;5052464;28;20429;-77
2022/09/19 07:25:27;;;;;;;0.50;0.40;;;17.60;99.90;;;;;;5059319;28;20473;-77
2022/09/19 07:27:58;;;;;;;0.50;0.40;;;17.40;99.90;;;;;;5070946;28;20489;-78
2022/09/19 07:30:26;;;;;;;2.30;2.10;;;17.50;99.90;;;;;;5074338;28;20539;-77
2022/09/19 07:32:55;;;;;;;0.50;0.40;;;17.60;99.90;;;;;;5075015;28;20451;-77
2022/09/19 07:35:22;;;;;;;0.50;0.30;;;17.80;99.90;;;;;;5072324;28;20480;-77
2022/09/19 07:37:50;;;;;;;0.50;0.30;;;17.50;99.90;;;;;;5071836;28;20432;-77
2022/09/19 07:40:16;;;;;;;0.50;0.40;;;17.20;99.90;;;;;;5066471;28;20456;-78
2022/09/19 07:42:43;;;;;;;0.50;0.40;;;17.30;99.90;;;;;;5060153;28;20449;-77
2022/09/19 07:45:10;;;;;;;0.83;0.83;;;17.20;99.90;;;;;;5051133;28;20800;-77
2022/09/19 07:47:43;;;;;;;0.50;0.30;;;17.30;99.90;;;;;;5051110;28;20464;-77
2022/09/19 07:50:14;;;;;;;0.50;0.30;;;17.60;99.90;;;;;;5050811;28;20451;-77
2022/09/19 07:52:41;;;;;;;0.50;0.37;;;18.00;99.90;;;;;;5051620;28;20815;-77
2022/09/19 07:55:11;;;;;;;0.50;0.30;;;19.20;99.90;;;;;;5051084;28;20496;-77
2022/09/19 07:57:38;;;;;;;0.50;0.30;;;20.80;99.90;;;;;;5052303;28;20471;-75
2022/09/19 08:00:06;;;;;;;0.50;0.30;;;22.30;99.90;;;;;;5051791;28;20445;-77
2022/09/19 08:02:33;;;;;;;20.27;1.07;;;23.70;99.90;;;;;;5051938;28;20445;-77
2022/09/19 08:05:01;;;;;;;0.50;0.50;;;24.50;99.90;;;;;;5051878;28;20810;-77
2022/09/19 08:07:28;;;;;;;0.50;0.40;;;25.30;95.00;;;;;;5052242;28;20762;-77
2022/09/19 08:09:54;;;;;;;1.53;0.60;;;25.20;93.60;;;;;;5051843;28;21029;-77
2022/09/19 08:12:22;;;;;;;0.50;0.40;;;25.40;92.80;;;;;;5051942;28;20445;-78
2022/09/19 08:14:49;;;;;;;1.27;1.27;;;26.80;93.60;;;;;;5053716;28;20457;-78
2022/09/19 08:17:16;;;;;;;0.50;0.30;;;27.80;87.80;;;;;;5054379;28;20483;-76
2022/09/19 08:19:44;;;;;;;0.50;0.30;;;28.50;79.80;;;;;;5051255;28;20480;-78
2022/09/19 08:22:13;;;;;;;0.50;0.30;;;28.60;74.20;;;;;;5053339;28;20444;-77
2022/09/19 08:24:40;;;;;;;1.33;0.40;;;28.30;74.50;;;;;;5056850;28;20472;-77
2022/09/19 08:27:08;;;;;;;0.50;0.30;;;28.10;75.00;;;;;;5066867;28;20455;-77
2022/09/19 08:29:37;;;;;;;0.50;0.30;;;28.50;72.90;;;;;;5075521;28;20436;-77
2022/09/19 08:32:04;;;;;;;0.73;0.73;;;29.10;74.70;;;;;;5075053;28;20482;-77
2022/09/19 08:34:31;;;;;;;1.27;0.50;;;29.50;71.60;;;;;;5074933;28;20458;-77
2022/09/19 08:37:00;;;;;;;0.50;0.50;;;29.20;67.00;;;;;;5075066;28;20467;-77
2022/09/19 08:39:28;;;;;;;0.50;0.40;;;29.60;71.50;;;;;;5070753;28;20886;-77
2022/09/19 08:42:09;;;;;;;0.50;0.30;;;29.60;66.50;;;;;;5055140;28;20466;-77
2022/09/19 08:44:52;;;;;;;0.50;0.30;;;29.20;67.40;;;;;;5054799;28;20467;-77
2022/09/19 08:47:23;;;;;;;2.27;0.80;;;28.00;67.60;;;;;;5054897;28;20528;-75
2022/09/19 08:49:54;;;;;;;0.50;0.30;;;27.40;69.90;;;;;;5053743;28;20922;-76
2022/09/19 08:52:33;;;;;;;0.50;0.30;;;27.20;74.50;;;;;;5055112;28;20690;-77
2022/09/19 08:55:03;;;;;;;0.50;0.40;;;27.40;75.30;;;;;;5054228;28;20471;-77
2022/09/19 08:57:33;;;;;;;0.50;0.30;;;28.30;73.10;;;;;;5054294;28;20469;-77
2022/09/19 09:00:04;;;;;;;0.50;0.40;;;28.50;72.50;;;;;;5054616;28;20441;-77
2022/09/19 09:02:42;;;;;;;0.50;0.30;;;29.30;70.90;;;;;;5054755;28;20866;-76
2022/09/19 09:05:13;;;;;;;0.60;0.37;;;29.40;67.50;;;;;;5055346;28;20465;-77
2022/09/19 09:07:54;;;;;;;0.73;0.73;;;29.40;64.50;;;;;;5054881;28;20926;-75
2022/09/19 09:10:45;;;;;;;0.50;0.30;;;28.70;67.20;;;;;;5053842;28;20437;-74
2022/09/19 09:13:26;;;;;;;0.50;0.30;;;28.90;68.10;;;;;;5054220;28;20441;-75
2022/09/19 09:16:03;;;;;;;0.50;0.30;;;28.40;69.50;;;;;;5053473;28;20985;-75
2022/09/19 09:18:47;;;;;;;0.50;0.30;;;26.90;70.20;;;;;;5054185;28;20409;-75
2022/09/19 09:21:21;;;;;;;0.50;0.30;;;25.60;73.00;;;;;;5055663;28;20814;-77
2022/09/19 09:23:52;;;;;;;0.50;0.40;;;24.70;79.50;;;;;;5053992;28;20954;-77
2022/09/19 09:26:25;;;;;;;0.50;0.30;;;24.50;81.00;;;;;;5053844;28;20822;-77
2022/09/19 09:28:57;;;;;;;0.50;0.40;;;24.20;83.50;;;;;;5053734;28;20441;-76
2022/09/19 09:31:29;;;;;;;0.50;0.40;;;23.70;84.50;;;;;;5054072;28;20443;-76
2022/09/19 09:34:00;;;;;;;0.50;0.30;;;23.10;85.90;;;;;;5053782;28;20608;-76
2022/09/19 09:36:31;;;;;;;0.50;0.40;;;22.50;90.30;;;;;;5053447;28;20480;-76
2022/09/19 09:39:02;;;;;;;0.50;0.30;;;21.90;92.30;;;;;;5053270;28;20441;-76
2022/09/19 09:41:52;;;;;;;0.50;0.30;;;21.30;99.90;;;;;;5053278;28;20540;-76
2022/09/19 09:44:44;;;;;;;0.50;0.37;;;21.10;99.90;;;;;;5053462;28;20445;-77
2022/09/19 09:47:24;;;;;;;0.50;0.30;;;21.20;99.90;;;;;;5053506;28;20434;-75
2022/09/19 09:49:52;;;;;;;0.50;0.40;;;21.20;99.90;;;;;;5053285;28;20500;-76
2022/09/19 09:52:33;;;;;;;0.70;0.50;;;20.90;99.90;;;;;;5053180;28;20437;-76
2022/09/19 09:58:13;;;;;;;0.50;0.37;;;20.40;99.90;;;;;;5053286;28;20471;-76
2022/09/19 10:03:35;;;;;;;0.50;0.30;;;20.30;99.90;;;;;;5053371;28;20425;-76
2022/09/19 10:06:09;;;;;;;0.50;0.40;;;20.00;99.90;;;;;;5053035;28;21013;-76
2022/09/19 10:08:40;;;;;;;0.50;0.30;;;20.00;99.90;;;;;;5053315;28;20449;-76
2022/09/19 10:11:12;;;;;;;0.93;0.83;;;20.30;99.90;;;;;;5053107;28;20448;-76
2022/09/19 10:13:46;;;;;;;0.50;0.30;;;20.30;99.90;;;;;;5053411;28;20421;-77
2022/09/19 10:16:17;;;;;;;0.50;0.37;;;19.90;99.90;;;;;;5052623;28;20487;-76
2022/09/19 10:18:50;;;;;;;0.50;0.33;;;19.90;99.90;;;;;;5053243;28;20498;-76
2022/09/19 10:21:17;;;;;;;0.90;0.70;;;20.10;99.90;;;;;;5053022;28;20433;-75
2022/09/19 10:23:45;;;;;;;0.80;0.40;;;20.20;99.90;;;;;;5053373;28;20449;-76
2022/09/19 10:26:15;;;;;;;0.50;0.30;;;20.00;99.90;;;;;;5052845;28;20461;-76
2022/09/19 10:28:52;;;;;;;0.50;0.40;;;19.90;99.90;;;;;;5053101;28;20440;-76
2022/09/19 10:31:29;;;;;;;0.50;0.30;;;20.80;99.90;;;;;;5052393;28;20444;-76
2022/09/19 10:33:55;;;;;;;0.50;0.40;;;21.50;99.90;;;;;;5053066;28;20436;-74
2022/09/19 10:36:31;;;;;;;0.50;0.40;;;22.20;99.90;;;;;;5052631;28;20480;-75
2022/09/19 10:39:01;;;;;;;0.50;0.40;;;23.20;99.90;;;;;;5052688;28;20490;-75
2022/09/19 10:41:32;;;;;;;0.50;0.50;;;23.70;99.20;;;;;;5051728;28;20967;-75
2022/09/19 10:44:02;;;;;;;0.50;0.30;;;23.70;96.70;;;;;;5052149;28;20452;-75
2022/09/19 10:46:35;;;;;;;0.50;0.30;;;24.40;93.90;;;;;;5052593;28;20540;-75
2022/09/19 10:49:06;;;;;;;0.50;0.30;;;25.20;90.30;;;;;;5052092;28;20954;-76
2022/09/19 10:51:36;;;;;;;0.50;0.43;;;25.90;84.60;;;;;;5052416;28;20461;-75
2022/09/19 10:54:11;;;;;;;8.80;0.83;;;26.00;81.20;;;;;;5051912;28;20447;-75
2022/09/19 10:56:40;;;;;;;0.50;0.30;;;25.40;80.70;;;;;;5051778;28;20464;-76
2022/09/19 10:59:26;;;;;;;0.50;0.30;;;26.00;82.60;;;;;;5052292;28;20440;-76
2022/09/19 11:02:18;;;;;;;0.50;0.30;;;26.70;79.70;;;;;;5052262;28;20865;-76
2022/09/19 11:04:56;;;;;;;0.50;0.30;;;27.60;74.60;;;;;;5051991;28;20998;-76
2022/09/19 11:07:29;;;;;;;0.50;0.30;;;26.40;72.40;;;;;;5052283;28;20421;-76
2022/09/19 11:09:59;;;;;;;0.50;0.30;;;26.30;75.10;;;;;;5051707;28;20822;-75
2022/09/19 11:12:30;;;;;;;0.60;0.57;;;26.20;75.00;;;;;;5051766;28;20469;-75
2022/09/19 11:14:59;;;;;;;0.50;0.30;;;26.50;74.00;;;;;;5051900;28;20469;-76
2022/09/19 11:17:53;;;;;;;0.50;0.40;;;25.70;73.90;;;;;;5051743;28;21048;-75
2022/09/19 11:20:27;;;;;;;0.70;0.70;;;24.80;74.70;;;;;;5052395;28;20499;-75
2022/09/19 11:23:29;;;;;;;0.50;0.30;;;24.20;77.20;;;;;;5051867;28;20460;-75
2022/09/19 11:26:06;;;;;;;0.50;0.30;;;23.80;84.60;;;;;;5051701;28;20474;-76
2022/09/19 11:28:45;;;;;;;0.50;0.40;;;23.70;79.20;;;;;;5051235;28;20440;-76
2022/09/19 11:31:24;;;;;;;0.50;0.40;;;22.90;80.70;;;;;;5051267;28;20421;-75
2022/09/19 11:33:57;;;;;;;0.90;0.60;;;22.00;81.60;;;;;;5051777;28;20790;-75
2022/09/19 11:36:34;;;;;;;0.70;0.63;;;21.40;85.40;;;;;;5051107;28;20885;-76
2022/09/19 11:39:06;;;;;;;0.50;0.40;;;20.20;90.70;;;;;;5053039;28;20440;-75
2022/09/19 11:41:52;;;;;;;0.77;0.50;;;19.40;99.90;;;;;;5050933;28;20441;-73
2022/09/19 11:44:43;;;;;;;0.50;0.40;;;18.80;99.90;;;;;;5051053;28;20440;-75
2022/09/19 11:47:34;;;;;;;0.50;0.40;;;18.10;99.90;;;;;;5051564;28;20445;-75
2022/09/19 11:50:37;;;;;;;0.50;0.40;;;17.60;99.90;;;;;;5050844;28;20439;-75
2022/09/19 11:53:20;;;;;;;0.50;0.50;;;18.10;99.90;;;;;;5048037;28;20459;-76
2022/09/19 11:55:56;;;;;;;0.50;0.33;;;19.80;99.90;;;;;;5050220;28;20839;-75
2022/09/19 11:58:33;;;;;;;0.50;0.30;;;20.50;99.90;;;;;;5051519;28;20460;-75
2022/09/19 12:01:09;;;;;;;0.50;0.33;;;20.30;99.90;;;;;;5052645;28;20424;-75
2022/09/19 12:03:52;;;;;;;0.50;0.30;;;20.10;99.90;;;;;;5051283;28;20417;-75
2022/09/19 12:06:48;;;;;;;0.50;0.30;;;19.80;99.90;;;;;;5050900;28;20723;-75
2022/09/19 12:09:19;;;;;;;0.50;0.30;;;20.20;99.90;;;;;;5051100;28;20913;-74
2022/09/19 12:11:50;;;;;;;0.50;0.30;;;21.10;99.90;;;;;;5050814;28;20535;-76
2022/09/19 12:14:24;;;;;;;1.80;0.40;;;21.80;99.90;;;;;;5050535;28;20448;-76
2022/09/19 12:16:54;;;;;;;1.13;0.50;;;22.40;98.50;;;;;;5050635;28;20476;-75
2022/09/19 12:19:26;;;;;;;0.50;0.40;;;23.00;92.70;;;;;;5051095;28;20536;-75
2022/09/19 12:21:56;;;;;;;1.20;1.17;;;23.70;94.40;;;;;;5050916;28;20425;-75
2022/09/19 12:27:19;;;;;;;0.50;0.30;;;23.50;91.80;;;;;;5051020;28;20786;-75
2022/09/19 12:29:52;;;;;;;0.50;0.30;;;23.80;92.40;;;;;;5051528;28;20445;-76
2022/09/19 12:32:25;;;;;;;0.50;0.30;;;24.40;91.30;;;;;;5050694;28;20489;-75
2022/09/19 12:35:01;;;;;;;0.50;0.30;;;25.10;88.30;;;;;;5050780;28;20511;-76
2022/09/19 12:37:36;;;;;;;0.50;0.30;;;25.80;85.90;;;;;;5050576;28;20484;-76
2022/09/19 12:40:16;;;;;;;1.00;1.00;;;26.50;83.40;;;;;;5051536;28;20472;-75
2022/09/19 12:42:49;;;;;;;0.50;0.30;;;26.70;78.30;;;;;;5051089;28;20555;-76
2022/09/19 12:45:22;;;;;;;0.50;0.30;;;26.10;80.00;;;;;;5050620;28;20785;-75
2022/09/19 12:48:14;;;;;;;1.37;0.43;;;25.60;78.90;;;;;;5050913;28;20484;-75
2022/09/19 12:50:50;;;;;;;0.50;0.40;;;25.80;81.40;;;;;;5050625;28;21005;-75
2022/09/19 12:53:31;;;;;;;0.50;0.30;;;25.50;79.40;;;;;;5050668;28;20425;-74
2022/09/19 12:56:03;;;;;;;0.60;0.40;;;24.30;85.90;;;;;;5050674;28;20533;-75
2022/09/19 12:58:37;;;;;;;0.50;0.30;;;22.80;87.30;;;;;;5051518;28;20812;-76
2022/09/19 13:01:18;;;;;;;0.80;0.47;;;21.40;93.20;;;;;;5051517;28;20422;-76
2022/09/19 13:03:50;;;;;;;2.60;0.97;;;20.30;99.90;;;;;;5050910;28;20437;-75
2022/09/19 13:06:24;;;;;;;0.80;0.60;;;19.80;99.90;;;;;;5049860;28;20493;-75
2022/09/19 13:08:55;;;;;;;2.20;0.50;;;19.20;99.90;;;;;;5061198;28;20441;-76
2022/09/19 13:11:30;;;;;;;0.50;0.40;;;19.00;99.90;;;;;;5052289;28;20547;-76
2022/09/19 13:14:03;;;;;;;0.50;0.30;;;18.70;99.90;;;;;;5053927;28;20802;-76
2022/09/19 13:16:33;;;;;;;0.50;0.40;;;18.50;99.90;;;;;;5054130;28;20843;-76
2022/09/19 13:24:53;;;;;;;1.47;0.43;;;18.20;99.90;;;;;;5053359;28;20452;-76
2022/09/19 13:27:21;;;;;;;1.23;1.13;;;18.10;99.90;;;;;;5054260;28;20443;-76
2022/09/19 13:29:51;;;;;;;0.50;0.37;;;18.10;99.90;;;;;;5055226;28;20552;-76
2022/09/19 13:32:34;;;;;;;0.50;0.40;;;18.00;99.90;;;;;;5062932;28;20931;-76
2022/09/19 13:35:14;;;;;;;0.60;0.40;;;17.80;99.90;;;;;;5053714;28;20468;-76
2022/09/19 13:37:56;;;;;;;0.50;0.40;;;17.80;99.90;;;;;;5053230;28;21036;-76
2022/09/19 13:40:41;;;;;;;1.67;0.93;;;17.70;99.90;;;;;;5054036;28;20459;-76